Hovedside
METAR-TAF:

METAR-TAF

Lufthavner :

Oslo lufthavn (Gardermoen)

Oslo, Norge

breddegrad: 60-12N, lengdegrad: 011-05E, høyde over havet: 208 m

Gjeldene værobservasjon

Denne rapporten ble laget for 38 minutter siden, klokken 05:50 UTC
Vind 2 kt fra skiftende retning
Temperatur 1°C
Luftfuktighet 100%
Trykk 1020 hPa
Sikt: 2200 m
Spredte skyer i en høyde av 200 ft
Brutte skyer i en høyde av 700 ft

METAR: ENGM 150550Z VRB02KT 9999 2200NE SCT002 BKN007 01/01 Q1020 TEMPO 2000 BR BKN002

Tid: 07:28 (06:28 UTC)

Varsel

Varsel gyldig fra 15. klokken 06 UTC til 16. klokken 06 UTC
Vind 5 kt fra Nord
Sikt: 7000 m
Overskyet i en høyde av 1200 ft
Sannsynlighet 40% :
Midlertidig
fra 15. klokken 06 UTC til 16. klokken 06 UTC
Sikt: 3000 m
Overskyet i en høyde av 300 ft
dis

TAF: ENGM 1506/1606 36005KT 7000 OVC012 PROB40 TEMPO 1506/1606 3000 BR OVC003

Værobservasjoner og værvarsel for over 4000 flyplasser (METAR- og TAF-rapporter).

Tilgjengelige stasjoner er representert av de røde og gule prikkene på kartet.

Hold musepekeren over prikken for å se navnet på stasjonen.

Klikk så for å se værobservasjoner og -varsler.

For å forandre kartet kan du klikke på den grønne knappen med svart kryss for å zoome inn, på den grønne knappen med strek for å zoome ut, eller på de grønne pilene for å se tilstøtende kart.


METAR-TAF: